Mukdahan, Thailand

9:08 PM ICT on June 02, 2015 (GMT +0700)
Sakon Nakhon | | Change Station
CLOSE
Current Station
Airport
Location: Sakon Nakhon Airport,
Elevation: 528 ft
Nearby Weather Stations

Elev 528 ft 17.20 °N, 104.12 °E | Updated 1 hour ago

Partly Cloudy
Partly Cloudy
88 °F
Feels Like 102 °F
N
4
Wind Variable Wind from SE

Today
High -- | Low -- °F
--% Chance of Precip.
Yesterday
High -- | Low -- °F
Precip. -- in
5:27 AM 6:30 PM
Full, 100% visible
Pressure 29.74 in
Visibility 6.2 miles
Clouds Few 2000 ft
Heat Index 102 °F
Dew Point 79 °F
Humidity 75%
Rainfall 0.00 in
Snow Depth Not available.
UV 0 out of 12
Pollen Not available.
Air Quality Not available.
Flu Activity Not available.
METAR VTUI 021300Z 14003KT 9999 FEW020CB 31/26 Q1007 A2975 CB SE SW NW INFO N RWY23

More Conditions Fewer Conditions

Pressure 29.74 in
Visibility 6.2 miles
Clouds Few 2000 ft
Heat Index 102 °F
Dew Point 79 °F
Humidity 75%
Rainfall 0.00 in
Snow Depth Not available.
UV 0 out of 12
Pollen Not available.
Air Quality Not available.
Flu Activity Not available.
METAR VTUI 021300Z 14003KT 9999 FEW020CB 31/26 Q1007 A2975 CB SE SW NW INFO N RWY23

More Conditions Fewer Conditions

10-Day Weather Forecast

Almanac

Astronomy

Jun. 02, 2015 Rise Set
Actual Time
Civil Twilight
Nautical Twilight
Astronomical Twilight
Moon
Length of Visible Light
Length of Day
Tomorrow will be .
, % of the Moon is Illuminated

Today's Extremes

Country Highs Country Lows

Community

WunderPhotos

Upload Photos

1,825,915 photos uploaded!

WunderBlogs® & News

Nearby

Air Quality

  Air Quality AQ Index Pollutant
Not available.

Snow Depth

Station Depth Elevation

Earthquake Activity

City Distance Mag. Time & Date
Minimum magnitude displayed is 2.5.

Coastal Water Temperatures

Place Temperature

Stations

Nearby Weather Stations

Station Location Temp. Windchill Dew Point Humidity Wind Precip. Elev Updated Type